createdAt,value
2017-12-31T00:01:43.804Z,10.90
2017-12-31T00:03:47.224Z,10.80
2017-12-31T00:05:49.893Z,10.70
2017-12-31T00:07:52.533Z,10.80
2017-12-31T00:09:55.181Z,10.80
2017-12-31T00:11:57.866Z,10.70
2017-12-31T00:14:00.526Z,10.70
2017-12-31T00:16:03.176Z,10.70
2017-12-31T00:18:05.842Z,10.70
2017-12-31T00:20:08.494Z,10.70
2017-12-31T00:22:13.107Z,10.70
2017-12-31T00:24:15.815Z,10.70
2017-12-31T00:26:18.484Z,10.70
2017-12-31T00:28:21.928Z,10.60
2017-12-31T00:30:24.584Z,10.60
2017-12-31T00:32:27.243Z,10.70
2017-12-31T00:34:29.919Z,10.60
2017-12-31T00:36:32.607Z,10.50
2017-12-31T00:38:35.266Z,10.50
2017-12-31T00:40:37.950Z,10.50
2017-12-31T00:42:40.613Z,10.50
2017-12-31T00:44:44.083Z,10.50
2017-12-31T00:46:46.770Z,10.50
2017-12-31T00:48:50.304Z,10.50
2017-12-31T00:50:52.971Z,10.40
2017-12-31T00:52:55.669Z,10.40
2017-12-31T00:54:58.328Z,10.40
2017-12-31T00:57:00.985Z,10.40
2017-12-31T00:59:04.434Z,10.30
2017-12-31T01:01:07.113Z,10.30
2017-12-31T01:03:09.765Z,10.30
2017-12-31T01:05:12.436Z,10.40
2017-12-31T01:07:15.084Z,10.30
2017-12-31T01:09:17.742Z,10.30
2017-12-31T01:11:21.198Z,10.30
2017-12-31T01:13:23.887Z,10.30
2017-12-31T01:15:26.557Z,10.30
2017-12-31T01:17:29.248Z,10.30
2017-12-31T01:19:31.906Z,10.30
2017-12-31T01:21:34.575Z,10.20
2017-12-31T01:23:37.258Z,10.20
2017-12-31T01:25:39.944Z,10.30
2017-12-31T01:27:42.655Z,10.30
2017-12-31T01:29:46.084Z,10.30
2017-12-31T01:31:48.748Z,10.30
2017-12-31T01:33:51.464Z,10.30
2017-12-31T01:35:54.106Z,10.30
2017-12-31T01:37:56.756Z,10.30
2017-12-31T01:40:00.199Z,10.30
2017-12-31T01:42:02.849Z,10.30
2017-12-31T01:44:05.511Z,10.30
2017-12-31T01:46:08.195Z,10.30
2017-12-31T01:48:10.848Z,10.20
2017-12-31T01:50:14.274Z,10.20
2017-12-31T01:52:16.973Z,10.20
2017-12-31T01:54:19.646Z,10.20
2017-12-31T01:56:22.293Z,10.20
2017-12-31T01:58:24.973Z,10.10
2017-12-31T02:00:27.626Z,10.10
2017-12-31T02:02:31.057Z,10.10
2017-12-31T02:04:33.749Z,10.00
2017-12-31T02:06:36.402Z,10.00
2017-12-31T02:08:39.061Z,10.00
2017-12-31T02:10:41.741Z,10.00
2017-12-31T02:12:44.391Z,9.90
2017-12-31T02:14:47.810Z,9.90
2017-12-31T02:16:50.487Z,9.90
2017-12-31T02:18:53.128Z,9.90
2017-12-31T02:20:55.844Z,9.90
2017-12-31T02:22:58.745Z,9.90
2017-12-31T02:25:01.399Z,9.80
2017-12-31T02:27:04.056Z,9.80
2017-12-31T02:29:06.743Z,9.80
2017-12-31T02:31:09.437Z,9.70
2017-12-31T02:33:12.082Z,9.70
2017-12-31T02:35:15.579Z,9.70
2017-12-31T02:37:19.008Z,9.70
2017-12-31T02:39:22.464Z,9.60
2017-12-31T02:41:25.892Z,9.60
2017-12-31T02:43:28.525Z,9.60
2017-12-31T02:45:31.947Z,9.60
2017-12-31T02:47:34.638Z,9.60
2017-12-31T02:49:37.295Z,9.50
2017-12-31T02:51:39.942Z,9.50
2017-12-31T02:53:43.425Z,9.50
2017-12-31T02:55:46.053Z,9.50
2017-12-31T02:57:48.724Z,9.50
2017-12-31T02:59:51.396Z,9.50
2017-12-31T03:01:54.059Z,9.50
2017-12-31T03:03:57.477Z,9.50
2017-12-31T03:06:00.168Z,9.50
2017-12-31T03:08:02.828Z,9.50
2017-12-31T03:10:05.474Z,9.50
2017-12-31T03:12:08.900Z,9.50
2017-12-31T03:14:11.546Z,9.40
2017-12-31T03:16:14.992Z,9.50
2017-12-31T03:18:17.641Z,9.50
2017-12-31T03:20:20.316Z,9.50
2017-12-31T03:22:22.998Z,9.50
2017-12-31T03:24:25.654Z,9.50
2017-12-31T03:26:28.342Z,9.50
2017-12-31T03:28:30.991Z,9.60
2017-12-31T03:30:34.421Z,9.60
2017-12-31T03:32:37.088Z,9.60
2017-12-31T03:34:39.741Z,9.60
2017-12-31T03:36:43.172Z,9.80
2017-12-31T03:38:45.835Z,9.80
2017-12-31T03:40:48.499Z,9.90
2017-12-31T03:42:51.162Z,10.00
2017-12-31T03:44:54.618Z,10.30
2017-12-31T03:46:57.290Z,10.40
2017-12-31T03:48:59.955Z,10.40
2017-12-31T03:51:02.637Z,10.50
2017-12-31T03:53:05.298Z,10.60
2017-12-31T03:55:07.944Z,10.70
2017-12-31T03:57:10.615Z,10.80
2017-12-31T03:59:13.270Z,11.00
2017-12-31T04:01:15.951Z,11.00
2017-12-31T04:03:19.379Z,11.10
2017-12-31T04:05:22.051Z,11.10
2017-12-31T04:07:24.724Z,11.20
2017-12-31T04:09:27.433Z,11.30
2017-12-31T04:11:30.060Z,11.30
2017-12-31T04:13:33.514Z,11.30
2017-12-31T04:15:36.171Z,11.30
2017-12-31T04:17:38.848Z,11.30
2017-12-31T04:19:41.537Z,11.30
2017-12-31T04:21:44.193Z,11.30
2017-12-31T04:23:46.858Z,11.30
2017-12-31T04:25:49.542Z,11.30
2017-12-31T04:27:52.198Z,11.40
2017-12-31T04:29:54.868Z,11.40
2017-12-31T04:31:57.556Z,11.40
2017-12-31T04:34:00.228Z,11.40
2017-12-31T04:36:02.902Z,11.40
2017-12-31T04:38:05.594Z,11.40
2017-12-31T04:40:08.277Z,11.40
2017-12-31T04:42:10.939Z,11.40
2017-12-31T04:44:13.626Z,11.40
2017-12-31T04:46:16.287Z,11.40
2017-12-31T04:48:18.963Z,11.40
2017-12-31T04:50:21.627Z,11.40
2017-12-31T04:52:25.040Z,11.50
2017-12-31T04:54:27.692Z,11.50
2017-12-31T04:56:31.142Z,11.50
2017-12-31T04:58:34.585Z,11.40
2017-12-31T05:00:38.010Z,11.50
2017-12-31T05:02:40.700Z,11.40
2017-12-31T05:04:43.358Z,11.50
2017-12-31T05:06:46.004Z,11.50
2017-12-31T05:08:48.730Z,11.50
2017-12-31T05:10:51.372Z,11.50
2017-12-31T05:12:54.027Z,11.50
2017-12-31T05:14:57.481Z,11.50
2017-12-31T05:17:00.143Z,11.50
2017-12-31T05:19:02.788Z,11.50
2017-12-31T05:21:05.474Z,11.50
2017-12-31T05:23:08.115Z,11.60
2017-12-31T05:25:10.790Z,11.60
2017-12-31T05:27:14.262Z,11.60
2017-12-31T05:29:16.904Z,11.60
2017-12-31T05:31:19.600Z,11.60
2017-12-31T05:33:22.278Z,11.60
2017-12-31T05:35:24.971Z,11.70
2017-12-31T05:37:27.636Z,11.70
2017-12-31T05:39:30.325Z,11.80
2017-12-31T05:41:32.977Z,11.80
2017-12-31T05:43:36.402Z,11.80
2017-12-31T05:45:39.081Z,11.80
2017-12-31T05:47:41.721Z,11.80
2017-12-31T05:49:45.210Z,11.80
2017-12-31T05:51:47.901Z,11.80
2017-12-31T05:53:50.549Z,11.90
2017-12-31T05:55:53.187Z,11.80
2017-12-31T05:57:56.620Z,11.80
2017-12-31T05:59:59.281Z,11.80
2017-12-31T06:02:01.939Z,11.90
2017-12-31T06:04:05.373Z,11.80
2017-12-31T06:06:08.020Z,11.80
2017-12-31T06:08:10.669Z,11.80
2017-12-31T06:10:13.342Z,11.80
2017-12-31T06:12:16.003Z,11.90
2017-12-31T06:14:18.664Z,12.10
2017-12-31T06:16:21.327Z,12.00
2017-12-31T06:18:23.986Z,11.90
2017-12-31T06:20:26.658Z,11.90
2017-12-31T06:22:29.347Z,12.00
2017-12-31T06:24:31.998Z,12.00
2017-12-31T06:26:35.430Z,12.00
2017-12-31T06:28:38.113Z,12.00
2017-12-31T06:30:40.765Z,12.00
2017-12-31T06:32:43.656Z,12.00
2017-12-31T06:34:46.328Z,12.00
2017-12-31T06:36:48.985Z,12.10
2017-12-31T06:38:51.650Z,12.20
2017-12-31T06:40:55.341Z,12.20
2017-12-31T06:42:59.572Z,12.20
2017-12-31T06:45:02.215Z,12.20
2017-12-31T06:47:04.885Z,12.20
2017-12-31T06:49:07.736Z,12.40
2017-12-31T06:51:10.593Z,12.20
2017-12-31T06:53:13.294Z,12.30
2017-12-31T06:55:15.958Z,12.30
2017-12-31T06:57:18.609Z,12.40
2017-12-31T06:59:23.799Z,12.30
2017-12-31T07:01:26.445Z,12.30
2017-12-31T07:03:29.088Z,12.20
2017-12-31T07:05:32.519Z,12.30
2017-12-31T07:07:35.180Z,12.40
2017-12-31T07:09:38.983Z,12.40
2017-12-31T07:11:41.672Z,12.40
2017-12-31T07:13:44.325Z,12.30
2017-12-31T07:15:46.992Z,12.40
2017-12-31T07:17:49.676Z,12.40
2017-12-31T07:19:52.331Z,12.50
2017-12-31T07:21:55.758Z,12.40
2017-12-31T07:23:58.448Z,12.40
2017-12-31T07:26:01.122Z,12.40
2017-12-31T07:28:03.867Z,12.30
2017-12-31T07:30:07.311Z,12.30
2017-12-31T07:32:09.965Z,12.30
2017-12-31T07:34:12.638Z,12.40
2017-12-31T07:36:15.332Z,12.40
2017-12-31T07:38:18.036Z,12.40
2017-12-31T07:40:20.794Z,12.50
2017-12-31T07:42:23.498Z,12.50
2017-12-31T07:44:26.163Z,12.50
2017-12-31T07:46:28.809Z,12.40
2017-12-31T07:48:31.495Z,12.40
2017-12-31T07:50:34.906Z,12.40
2017-12-31T07:52:37.571Z,12.50
2017-12-31T07:54:40.262Z,12.60
2017-12-31T07:56:42.908Z,12.50
2017-12-31T07:58:45.568Z,12.50
2017-12-31T08:00:48.255Z,12.50
2017-12-31T08:02:50.918Z,12.50
2017-12-31T08:04:53.572Z,12.60
2017-12-31T08:06:57.021Z,12.60
2017-12-31T08:08:59.676Z,12.60
2017-12-31T08:11:02.335Z,12.60
2017-12-31T08:13:05.124Z,12.60
2017-12-31T08:15:07.780Z,12.60
2017-12-31T08:17:10.419Z,12.60
2017-12-31T08:19:13.116Z,12.60
2017-12-31T08:21:16.529Z,12.60
2017-12-31T08:23:19.184Z,12.60
2017-12-31T08:25:22.610Z,12.60
2017-12-31T08:27:25.305Z,12.60
2017-12-31T08:29:28.003Z,12.60
2017-12-31T08:31:30.674Z,12.70
2017-12-31T08:33:33.340Z,12.60
2017-12-31T08:35:37.033Z,12.60
2017-12-31T08:37:39.706Z,12.60
2017-12-31T08:39:42.388Z,12.60
2017-12-31T08:41:45.039Z,12.60
2017-12-31T08:43:47.685Z,12.70
2017-12-31T08:45:51.158Z,12.60
2017-12-31T08:47:53.819Z,12.50
2017-12-31T08:49:56.486Z,12.60
2017-12-31T08:51:59.194Z,12.60
2017-12-31T08:54:01.857Z,12.60
2017-12-31T08:56:04.520Z,12.70
2017-12-31T08:58:07.269Z,12.70
2017-12-31T09:00:09.934Z,12.70
2017-12-31T09:02:12.626Z,12.70
2017-12-31T09:04:15.288Z,12.70
2017-12-31T09:06:17.970Z,12.70
2017-12-31T09:08:20.649Z,12.70
2017-12-31T09:10:23.410Z,12.70
2017-12-31T09:12:26.084Z,12.70
2017-12-31T09:14:29.579Z,12.70
2017-12-31T09:16:32.415Z,12.60
2017-12-31T09:18:35.097Z,12.80
2017-12-31T09:20:37.812Z,12.80
2017-12-31T09:22:40.463Z,12.80
2017-12-31T09:24:43.926Z,12.70
2017-12-31T09:26:46.577Z,12.70
2017-12-31T09:28:49.234Z,12.80
2017-12-31T09:30:52.678Z,12.80
2017-12-31T09:32:55.322Z,12.80
2017-12-31T09:34:57.998Z,12.80
2017-12-31T09:37:00.667Z,12.80
2017-12-31T09:39:03.411Z,12.80
2017-12-31T09:41:06.101Z,12.80
2017-12-31T09:43:08.803Z,12.90
2017-12-31T09:45:11.474Z,12.90
2017-12-31T09:47:14.140Z,12.90
2017-12-31T09:49:17.708Z,13.00
2017-12-31T09:51:20.378Z,13.00
2017-12-31T09:53:24.134Z,13.00
2017-12-31T09:55:27.968Z,13.00
2017-12-31T09:57:30.837Z,13.10
2017-12-31T09:59:34.290Z,13.20
2017-12-31T10:01:37.862Z,13.20
2017-12-31T10:03:40.698Z,13.20
2017-12-31T10:05:43.652Z,13.20
2017-12-31T10:07:47.069Z,13.40
2017-12-31T10:09:49.738Z,13.40
2017-12-31T10:11:52.454Z,13.30
2017-12-31T10:13:55.120Z,13.20
2017-12-31T10:15:58.882Z,13.30
2017-12-31T10:18:02.516Z,13.30
2017-12-31T10:20:05.168Z,13.30
2017-12-31T10:22:07.847Z,13.30
2017-12-31T10:24:10.536Z,13.30
2017-12-31T10:26:13.238Z,13.40
2017-12-31T10:28:16.491Z,13.40
2017-12-31T10:30:19.352Z,13.30
2017-12-31T10:32:22.396Z,13.30
2017-12-31T10:34:25.068Z,13.30
2017-12-31T10:36:27.872Z,13.30
2017-12-31T10:38:31.364Z,13.30
2017-12-31T10:40:35.830Z,13.30
2017-12-31T10:42:38.484Z,13.30
2017-12-31T10:44:41.171Z,13.40
2017-12-31T10:46:43.846Z,13.50
2017-12-31T10:48:46.501Z,13.50
2017-12-31T10:50:49.929Z,13.60
2017-12-31T10:52:52.613Z,13.60
2017-12-31T10:54:55.514Z,13.90
2017-12-31T10:56:58.217Z,13.90
2017-12-31T10:59:02.523Z,13.70
2017-12-31T11:01:05.223Z,13.80
2017-12-31T11:03:08.653Z,13.80
2017-12-31T11:05:11.346Z,13.80
2017-12-31T11:07:14.022Z,14.00
2017-12-31T11:09:17.264Z,14.00
2017-12-31T11:11:21.193Z,14.00
2017-12-31T11:13:23.892Z,14.00
2017-12-31T11:15:26.632Z,14.00
2017-12-31T11:17:29.347Z,14.10
2017-12-31T11:19:32.022Z,14.00
2017-12-31T11:21:34.661Z,14.00
2017-12-31T11:23:37.336Z,14.00
2017-12-31T11:25:39.990Z,13.90
2017-12-31T11:27:43.447Z,14.00
2017-12-31T11:29:46.855Z,14.00
2017-12-31T11:31:49.515Z,14.00
2017-12-31T11:33:52.238Z,14.00
2017-12-31T11:35:56.374Z,13.90
2017-12-31T11:37:59.026Z,13.90
2017-12-31T11:40:02.471Z,13.90
2017-12-31T11:42:05.130Z,13.90
2017-12-31T11:44:07.782Z,13.80
2017-12-31T11:46:10.452Z,13.90
2017-12-31T11:48:13.874Z,13.90
2017-12-31T11:50:16.519Z,13.90
2017-12-31T11:52:20.012Z,14.00
2017-12-31T11:54:23.428Z,14.00
2017-12-31T11:56:26.081Z,14.00
2017-12-31T11:58:29.516Z,14.00
2017-12-31T12:00:32.187Z,14.00
2017-12-31T12:02:34.870Z,14.20
2017-12-31T12:04:37.742Z,14.10
2017-12-31T12:06:40.428Z,14.00
2017-12-31T12:08:44.249Z,13.90
2017-12-31T12:10:46.966Z,13.80
2017-12-31T12:12:50.430Z,13.80
2017-12-31T12:14:53.179Z,13.80
2017-12-31T12:16:55.880Z,13.80
2017-12-31T12:18:58.533Z,13.80
2017-12-31T12:21:01.223Z,13.90
2017-12-31T12:23:03.920Z,13.90
2017-12-31T12:25:06.586Z,13.90
2017-12-31T12:27:09.259Z,13.90
2017-12-31T12:29:11.965Z,13.80
2017-12-31T12:31:15.391Z,13.80
2017-12-31T12:33:18.048Z,13.80
2017-12-31T12:35:21.508Z,13.90
2017-12-31T12:37:24.204Z,13.90
2017-12-31T12:39:27.786Z,14.00
2017-12-31T12:41:30.729Z,14.00
2017-12-31T12:43:33.792Z,13.90
2017-12-31T12:45:43.959Z,13.90
2017-12-31T12:47:47.603Z,13.80
2017-12-31T12:49:52.141Z,13.80
2017-12-31T12:51:56.148Z,13.80
2017-12-31T12:54:02.982Z,13.70
2017-12-31T12:56:08.130Z,13.70
2017-12-31T12:58:12.774Z,13.80
2017-12-31T13:00:19.530Z,13.90
2017-12-31T13:02:24.187Z,13.90
2017-12-31T13:04:27.041Z,13.90
2017-12-31T13:06:29.916Z,13.90
2017-12-31T13:08:32.617Z,13.90
2017-12-31T13:10:36.085Z,13.80
2017-12-31T13:12:38.805Z,13.80
2017-12-31T13:14:41.458Z,13.70
2017-12-31T13:16:44.914Z,13.60
2017-12-31T13:18:48.178Z,13.60
2017-12-31T13:20:50.889Z,13.60
2017-12-31T13:22:53.549Z,13.60
2017-12-31T13:24:56.227Z,13.60
2017-12-31T13:26:58.905Z,13.60
2017-12-31T13:29:01.556Z,13.70
2017-12-31T13:31:04.212Z,13.60
2017-12-31T13:33:07.641Z,13.70
2017-12-31T13:35:10.801Z,13.60
2017-12-31T13:37:13.476Z,13.70
2017-12-31T13:39:16.120Z,13.60
2017-12-31T13:41:18.800Z,13.60
2017-12-31T13:43:21.526Z,13.60
2017-12-31T13:45:24.422Z,13.60
2017-12-31T13:47:27.410Z,13.60
2017-12-31T13:49:30.128Z,13.50
2017-12-31T13:51:33.832Z,13.60
2017-12-31T13:53:37.255Z,13.50
2017-12-31T13:55:39.930Z,13.50
2017-12-31T13:57:42.580Z,13.60
2017-12-31T13:59:46.001Z,13.50
2017-12-31T14:01:48.763Z,13.50
2017-12-31T14:03:51.438Z,13.60
2017-12-31T14:05:54.864Z,13.60
2017-12-31T14:07:57.585Z,13.60
2017-12-31T14:10:00.291Z,13.70
2017-12-31T14:12:03.716Z,13.70
2017-12-31T14:14:06.442Z,13.60
2017-12-31T14:16:09.856Z,13.60
2017-12-31T14:18:12.523Z,13.60
2017-12-31T14:20:15.982Z,13.60
2017-12-31T14:22:18.928Z,13.60
2017-12-31T14:24:21.578Z,13.60
2017-12-31T14:26:25.015Z,13.40
2017-12-31T14:28:27.659Z,13.40
2017-12-31T14:30:30.317Z,13.40
2017-12-31T14:32:33.825Z,13.50
2017-12-31T14:34:36.492Z,13.40
2017-12-31T14:36:39.925Z,13.40
2017-12-31T14:38:42.617Z,13.40
2017-12-31T14:40:45.280Z,13.40
2017-12-31T14:42:47.916Z,13.50
2017-12-31T14:44:51.352Z,13.40
2017-12-31T14:46:54.769Z,13.20
2017-12-31T14:48:57.462Z,13.20
2017-12-31T14:51:00.938Z,13.30
2017-12-31T14:53:03.715Z,13.20
2017-12-31T14:55:06.414Z,13.20
2017-12-31T14:57:09.285Z,13.40
2017-12-31T14:59:12.086Z,13.30
2017-12-31T15:01:16.734Z,13.20
2017-12-31T15:03:19.501Z,13.20
2017-12-31T15:05:23.748Z,13.20
2017-12-31T15:07:26.591Z,13.20
2017-12-31T15:09:29.493Z,13.20
2017-12-31T15:11:33.012Z,13.30
2017-12-31T15:13:35.909Z,13.20
2017-12-31T15:15:38.565Z,13.30
2017-12-31T15:17:41.241Z,13.20
2017-12-31T15:19:43.906Z,13.30
2017-12-31T15:21:46.551Z,13.30
2017-12-31T15:23:49.263Z,13.30
2017-12-31T15:25:52.367Z,13.40
2017-12-31T15:27:55.030Z,13.40
2017-12-31T15:29:58.539Z,13.40
2017-12-31T15:32:01.191Z,13.40
2017-12-31T15:34:03.892Z,13.40
2017-12-31T15:36:06.565Z,13.40
2017-12-31T15:38:10.020Z,13.40
2017-12-31T15:40:12.692Z,13.40
2017-12-31T15:42:15.384Z,13.40
2017-12-31T15:44:18.665Z,13.30
2017-12-31T15:46:21.354Z,13.20
2017-12-31T15:48:24.030Z,13.30
2017-12-31T15:50:26.683Z,13.40
2017-12-31T15:52:29.473Z,13.30
2017-12-31T15:54:32.170Z,13.30
2017-12-31T15:56:34.826Z,13.40
2017-12-31T15:58:37.611Z,13.30
2017-12-31T16:00:40.264Z,13.30
2017-12-31T16:02:42.922Z,13.10
2017-12-31T16:04:46.370Z,13.00
2017-12-31T16:06:49.039Z,13.00
2017-12-31T16:08:51.709Z,13.00
2017-12-31T16:10:54.430Z,13.00
2017-12-31T16:12:57.091Z,13.00
2017-12-31T16:14:59.729Z,12.90
2017-12-31T16:17:02.422Z,12.80
2017-12-31T16:19:05.114Z,12.70
2017-12-31T16:21:07.774Z,12.60
2017-12-31T16:23:10.442Z,12.40
2017-12-31T16:25:13.096Z,12.30
2017-12-31T16:27:15.788Z,12.10
2017-12-31T16:29:18.470Z,11.90
2017-12-31T16:31:21.124Z,11.80
2017-12-31T16:33:23.805Z,11.80
2017-12-31T16:35:26.538Z,11.70
2017-12-31T16:37:29.177Z,11.70
2017-12-31T16:39:31.844Z,11.60
2017-12-31T16:41:34.543Z,11.60
2017-12-31T16:43:37.183Z,11.50
2017-12-31T16:45:39.828Z,11.40
2017-12-31T16:47:42.534Z,11.30
2017-12-31T16:49:45.190Z,11.30
2017-12-31T16:51:48.618Z,11.20
2017-12-31T16:53:51.284Z,11.20
2017-12-31T16:55:53.973Z,11.20
2017-12-31T16:57:56.636Z,11.10
2017-12-31T16:59:59.323Z,11.10
2017-12-31T17:02:01.960Z,11.00
2017-12-31T17:04:04.676Z,11.00
2017-12-31T17:06:07.345Z,11.00
2017-12-31T17:08:09.999Z,11.00
2017-12-31T17:10:13.424Z,11.00
2017-12-31T17:12:16.128Z,11.00
2017-12-31T17:14:18.833Z,11.00
2017-12-31T17:16:21.805Z,10.90
2017-12-31T17:18:24.547Z,10.90
2017-12-31T17:20:27.258Z,10.80
2017-12-31T17:22:29.918Z,10.90
2017-12-31T17:24:32.606Z,10.90
2017-12-31T17:26:35.260Z,10.90
2017-12-31T17:28:37.938Z,11.00
2017-12-31T17:30:40.603Z,11.00
2017-12-31T17:32:43.250Z,11.10
2017-12-31T17:34:46.667Z,11.10
2017-12-31T17:36:49.328Z,11.10
2017-12-31T17:38:51.968Z,11.10
2017-12-31T17:40:54.633Z,11.00
2017-12-31T17:42:57.287Z,10.90
2017-12-31T17:45:00.047Z,10.90
2017-12-31T17:47:02.738Z,10.80
2017-12-31T17:49:05.405Z,10.80
2017-12-31T17:51:08.054Z,10.80
2017-12-31T17:53:11.483Z,10.80
2017-12-31T17:55:14.152Z,10.80
2017-12-31T17:57:16.936Z,10.90
2017-12-31T17:59:19.627Z,10.90
2017-12-31T18:01:22.290Z,10.90
2017-12-31T18:03:24.947Z,10.90
2017-12-31T18:05:27.627Z,11.00
2017-12-31T18:07:30.291Z,11.10
2017-12-31T18:09:32.958Z,11.10
2017-12-31T18:11:36.431Z,11.10
2017-12-31T18:13:39.072Z,11.00
2017-12-31T18:15:41.727Z,11.10
2017-12-31T18:17:44.393Z,11.10
2017-12-31T18:19:47.075Z,11.10
2017-12-31T18:21:49.727Z,11.10
2017-12-31T18:23:53.391Z,11.10
2017-12-31T18:25:56.033Z,11.10
2017-12-31T18:27:58.723Z,11.10
2017-12-31T18:30:01.667Z,11.10
2017-12-31T18:32:04.536Z,11.20
2017-12-31T18:34:08.254Z,11.20
2017-12-31T18:36:12.888Z,11.20
2017-12-31T18:38:15.556Z,11.20
2017-12-31T18:40:18.203Z,11.20
2017-12-31T18:42:20.933Z,11.20
2017-12-31T18:44:23.633Z,11.20
2017-12-31T18:46:27.177Z,11.10
2017-12-31T18:48:30.610Z,11.10
2017-12-31T18:50:33.358Z,11.10
2017-12-31T18:52:36.022Z,11.20
2017-12-31T18:54:38.688Z,11.20
2017-12-31T18:56:42.113Z,10.90
2017-12-31T18:58:44.776Z,11.00
2017-12-31T19:00:47.502Z,10.90
2017-12-31T19:02:50.175Z,10.90
2017-12-31T19:04:52.842Z,10.80
2017-12-31T19:06:55.530Z,10.80
2017-12-31T19:08:58.173Z,10.70
2017-12-31T19:11:00.813Z,10.70
2017-12-31T19:13:04.288Z,10.50
2017-12-31T19:15:07.092Z,10.50
2017-12-31T19:17:10.543Z,10.40
2017-12-31T19:19:13.230Z,10.40
2017-12-31T19:21:15.914Z,10.40
2017-12-31T19:23:18.555Z,10.40
2017-12-31T19:25:22.356Z,10.30
2017-12-31T19:27:25.006Z,10.30
2017-12-31T19:29:27.656Z,10.20
2017-12-31T19:31:31.115Z,10.10
2017-12-31T19:33:33.767Z,10.00
2017-12-31T19:35:36.410Z,10.00
2017-12-31T19:37:39.859Z,9.90
2017-12-31T19:39:42.504Z,9.90
2017-12-31T19:41:45.132Z,9.90
2017-12-31T19:43:47.823Z,9.90
2017-12-31T19:45:51.249Z,9.90
2017-12-31T19:47:53.897Z,9.80
2017-12-31T19:49:57.346Z,9.80
2017-12-31T19:51:59.999Z,9.80
2017-12-31T19:54:03.705Z,9.80
2017-12-31T19:56:06.381Z,9.80
2017-12-31T19:58:09.170Z,9.70
2017-12-31T20:00:11.825Z,9.70
2017-12-31T20:02:14.499Z,9.70
2017-12-31T20:04:17.191Z,9.70
2017-12-31T20:06:19.834Z,9.60
2017-12-31T20:08:23.278Z,9.60
2017-12-31T20:10:25.922Z,9.60
2017-12-31T20:12:28.577Z,9.60
2017-12-31T20:14:32.012Z,9.50
2017-12-31T20:16:34.674Z,9.50
2017-12-31T20:18:37.396Z,9.50
2017-12-31T20:20:40.062Z,9.50
2017-12-31T20:22:42.705Z,9.50
2017-12-31T20:24:45.341Z,9.40
2017-12-31T20:26:48.799Z,9.40
2017-12-31T20:28:51.457Z,9.40
2017-12-31T20:30:54.114Z,9.40
2017-12-31T20:32:56.803Z,9.40
2017-12-31T20:34:59.470Z,9.40
2017-12-31T20:37:02.188Z,9.40
2017-12-31T20:39:05.630Z,9.40
2017-12-31T20:41:08.401Z,9.40
2017-12-31T20:43:12.023Z,9.30
2017-12-31T20:45:14.694Z,9.30
2017-12-31T20:47:17.350Z,9.30
2017-12-31T20:49:20.779Z,9.20
2017-12-31T20:51:23.449Z,9.10
2017-12-31T20:53:28.098Z,9.20
2017-12-31T20:55:30.733Z,9.20
2017-12-31T20:57:33.424Z,9.20
2017-12-31T20:59:36.060Z,9.20
2017-12-31T21:01:39.489Z,9.10
2017-12-31T21:03:42.182Z,9.10
2017-12-31T21:05:44.845Z,9.10
2017-12-31T21:07:47.502Z,9.10
2017-12-31T21:09:50.188Z,9.10
2017-12-31T21:11:52.832Z,9.10
2017-12-31T21:13:56.274Z,9.00
2017-12-31T21:15:58.926Z,9.00
2017-12-31T21:18:01.561Z,9.00
2017-12-31T21:20:04.251Z,8.90
2017-12-31T21:22:06.884Z,9.00
2017-12-31T21:24:10.302Z,9.00
2017-12-31T21:26:13.010Z,9.00
2017-12-31T21:28:16.438Z,8.90
2017-12-31T21:30:19.073Z,8.90
2017-12-31T21:32:22.509Z,8.90
2017-12-31T21:34:25.162Z,8.90
2017-12-31T21:36:27.796Z,8.90
2017-12-31T21:38:30.473Z,8.90
2017-12-31T21:40:33.139Z,8.90
2017-12-31T21:42:35.801Z,8.90
2017-12-31T21:44:38.455Z,8.90
2017-12-31T21:46:41.179Z,9.00
2017-12-31T21:48:43.850Z,9.00
2017-12-31T21:50:46.529Z,9.00
2017-12-31T21:52:49.175Z,9.10
2017-12-31T21:54:51.826Z,9.10
2017-12-31T21:56:54.570Z,9.10
2017-12-31T21:58:57.212Z,9.20
2017-12-31T22:00:59.854Z,9.20
2017-12-31T22:03:02.529Z,9.30
2017-12-31T22:05:05.183Z,9.30
2017-12-31T22:07:08.710Z,9.20
2017-12-31T22:09:11.389Z,9.20
2017-12-31T22:11:14.083Z,9.20
2017-12-31T22:13:16.778Z,9.20
2017-12-31T22:15:19.444Z,9.20
2017-12-31T22:17:22.092Z,9.10
2017-12-31T22:19:24.756Z,9.10
2017-12-31T22:21:27.520Z,9.10
2017-12-31T22:23:30.947Z,8.90
2017-12-31T22:25:33.617Z,8.90
2017-12-31T22:27:36.286Z,8.70
2017-12-31T22:29:38.932Z,8.50
2017-12-31T22:31:42.342Z,8.40
2017-12-31T22:33:45.801Z,8.30
2017-12-31T22:35:48.473Z,8.30
2017-12-31T22:37:51.134Z,8.20
2017-12-31T22:39:53.820Z,8.10
2017-12-31T22:41:56.464Z,8.00
2017-12-31T22:43:59.109Z,7.90
2017-12-31T22:46:02.558Z,7.90
2017-12-31T22:48:05.215Z,7.90
2017-12-31T22:50:07.985Z,7.80
2017-12-31T22:52:10.659Z,7.80
2017-12-31T22:54:13.319Z,7.70
2017-12-31T22:56:15.957Z,7.70
2017-12-31T22:58:18.640Z,7.70
2017-12-31T23:00:21.341Z,7.70
2017-12-31T23:02:24.755Z,7.80
2017-12-31T23:04:27.673Z,7.70
2017-12-31T23:06:30.367Z,7.90
2017-12-31T23:08:33.083Z,7.90
2017-12-31T23:10:35.782Z,7.90
2017-12-31T23:12:38.479Z,7.90
2017-12-31T23:14:41.241Z,7.90
2017-12-31T23:16:43.931Z,7.90
2017-12-31T23:18:47.363Z,8.00
2017-12-31T23:20:50.782Z,8.10
2017-12-31T23:22:53.475Z,8.10
2017-12-31T23:24:56.134Z,8.10
2017-12-31T23:26:58.821Z,8.10
2017-12-31T23:29:01.488Z,8.10
2017-12-31T23:31:04.145Z,8.10
2017-12-31T23:33:07.618Z,8.10
2017-12-31T23:35:10.297Z,8.10
2017-12-31T23:37:13.024Z,8.20
2017-12-31T23:39:15.688Z,8.20
2017-12-31T23:41:18.383Z,8.20
2017-12-31T23:43:21.070Z,8.30
2017-12-31T23:45:23.717Z,8.40
2017-12-31T23:47:26.418Z,8.30
2017-12-31T23:49:29.080Z,8.40
2017-12-31T23:51:31.748Z,8.40
2017-12-31T23:53:34.432Z,8.40
2017-12-31T23:55:37.090Z,8.40
2017-12-31T23:57:39.759Z,8.50
2017-12-31T23:59:43.196Z,8.50
